Nearby METAR Reports


EGGW - Luton Airport, United Kingdom
Distance from station: ESE 6mi, 9km
Updated: Wed, 17-Oct-2018 10:50pm BST
Clear
Clear
 Wind from N
Wind: N 6 mph , 9 km/h
Temperature: 11°C
Dew Point: 11°C
Humidity: 100%
Barometer: 1024 hPa
Clouds: Clear
Visibility: 6 miles , 10 km
2018/10/17 21:50 EGGW 172150Z AUTO 36005KT 9999 NCD 11/11 Q1024
EGTC - Cranfield, United Kingdom
Distance from station: NNW 13mi, 22km
Updated: Wed, 17-Oct-2018 9:20am BST
NOT Current
Light drizzle, Mist, Mostly cloudy
Light drizzle, Mist, Mostly cloudy
 Wind from WSW
Wind: WSW 7 mph , 11 km/h
Temperature: 13°C
Dew Point: 12°C
Humidity: 94%
Barometer: 1018 hPa
Summary: Light drizzle, Mist
Clouds: Mostly Cloudy
Visibility: 2 miles , 3 km
Cloud details: Mostly Cloudy 122 m
2018/10/17 08:20 EGTC 170820Z 24006KT 210V280 3000 -DZ BR BKN004 13/12 Q1018

Metar display script from Saratoga-Weather.org

Powered by Cumulus v1.9.4 (1098)